createdAt,value
2022-09-24T00:01:17.944Z,50.58
2022-09-24T00:03:50.004Z,50.57
2022-09-24T00:06:17.449Z,50.57
2022-09-24T00:08:43.821Z,50.58
2022-09-24T00:11:10.754Z,50.57
2022-09-24T00:13:37.253Z,50.57
2022-09-24T00:16:12.172Z,50.58
2022-09-24T00:18:38.915Z,50.58
2022-09-24T00:21:14.061Z,50.59
2022-09-24T00:23:41.055Z,50.60
2022-09-24T00:26:10.610Z,50.59
2022-09-24T00:28:37.329Z,50.60
2022-09-24T00:31:06.217Z,50.60
2022-09-24T00:33:36.094Z,50.60
2022-09-24T00:36:04.987Z,50.60
2022-09-24T00:38:32.457Z,50.61
2022-09-24T00:41:00.156Z,50.62
2022-09-24T00:43:31.168Z,50.64
2022-09-24T00:46:13.267Z,50.64
2022-09-24T00:48:41.142Z,50.65
2022-09-24T00:51:11.035Z,50.65
2022-09-24T00:53:37.426Z,50.66
2022-09-24T00:56:05.600Z,50.67
2022-09-24T00:58:33.386Z,50.67
2022-09-24T01:01:07.146Z,50.69
2022-09-24T01:03:38.086Z,50.68
2022-09-24T01:06:09.341Z,50.70
2022-09-24T01:08:36.310Z,50.69
2022-09-24T01:11:21.587Z,50.69
2022-09-24T01:14:24.930Z,50.73
2022-09-24T01:17:02.390Z,50.71
2022-09-24T01:19:31.886Z,50.74
2022-09-24T01:22:06.095Z,50.73
2022-09-24T01:24:44.294Z,50.74
2022-09-24T01:27:28.613Z,50.75
2022-09-24T01:30:06.813Z,50.75
2022-09-24T01:32:41.229Z,50.77
2022-09-24T01:35:18.642Z,50.76
2022-09-24T01:37:51.623Z,50.76
2022-09-24T01:40:20.452Z,50.77
2022-09-24T01:42:47.358Z,50.75
2022-09-24T01:45:16.028Z,50.76
2022-09-24T01:47:43.668Z,50.77
2022-09-24T01:50:13.347Z,50.76
2022-09-24T01:52:56.247Z,50.77
2022-09-24T01:55:30.074Z,50.75
2022-09-24T01:58:02.042Z,50.75
2022-09-24T02:00:28.940Z,50.78
2022-09-24T02:03:09.917Z,50.78
2022-09-24T02:05:49.877Z,50.78
2022-09-24T02:08:31.604Z,50.80
2022-09-24T02:11:06.075Z,50.82
2022-09-24T02:13:42.317Z,50.81
2022-09-24T02:16:13.145Z,50.83
2022-09-24T02:18:42.621Z,50.83
2022-09-24T02:21:15.654Z,50.82
2022-09-24T02:23:51.782Z,50.81
2022-09-24T02:26:18.256Z,50.76
2022-09-24T02:28:44.945Z,50.79
2022-09-24T02:31:15.428Z,50.78
2022-09-24T02:33:50.103Z,50.80
2022-09-24T02:36:17.455Z,50.78
2022-09-24T02:38:46.301Z,50.81
2022-09-24T02:41:15.561Z,50.80
2022-09-24T02:43:42.042Z,50.81
2022-09-24T02:46:08.562Z,50.81
2022-09-24T02:48:35.050Z,50.81
2022-09-24T02:51:01.580Z,50.81
2022-09-24T02:53:28.078Z,50.80
2022-09-24T02:55:54.490Z,50.81
2022-09-24T02:58:20.981Z,50.82
2022-09-24T03:00:47.488Z,50.84
2022-09-24T03:03:18.659Z,50.81
2022-09-24T03:05:45.126Z,50.82
2022-09-24T03:08:14.666Z,50.82
2022-09-24T03:10:41.148Z,50.84
2022-09-24T03:13:07.590Z,50.82
2022-09-24T03:15:34.091Z,51.05
2022-09-24T03:18:00.534Z,51.08
2022-09-24T03:20:27.006Z,51.09
2022-09-24T03:22:53.611Z,51.08
2022-09-24T03:25:21.719Z,51.09
2022-09-24T03:27:50.935Z,51.08
2022-09-24T03:30:17.659Z,51.10
2022-09-24T03:32:44.215Z,51.10
2022-09-24T03:35:10.771Z,51.09
2022-09-24T03:37:40.685Z,51.09
2022-09-24T03:40:10.162Z,51.09
2022-09-24T03:42:36.612Z,51.08
2022-09-24T03:45:04.147Z,51.08
2022-09-24T03:47:30.585Z,51.08
2022-09-24T03:49:57.528Z,51.09
2022-09-24T03:52:24.407Z,51.08
2022-09-24T03:54:50.830Z,51.08
2022-09-24T03:57:17.442Z,51.09
2022-09-24T03:59:44.593Z,51.09
2022-09-24T04:02:12.081Z,51.08
2022-09-24T04:04:39.016Z,51.09
2022-09-24T04:07:05.949Z,51.11
2022-09-24T04:09:32.436Z,51.11
2022-09-24T04:11:58.819Z,51.09
2022-09-24T04:14:27.680Z,51.10
2022-09-24T04:16:54.096Z,51.10
2022-09-24T04:19:20.481Z,51.09
2022-09-24T04:21:48.939Z,51.09
2022-09-24T04:24:22.632Z,51.09
2022-09-24T04:26:49.065Z,51.09
2022-09-24T04:29:15.563Z,51.07
2022-09-24T04:31:42.145Z,51.07
2022-09-24T04:34:09.933Z,51.10
2022-09-24T04:36:36.315Z,51.09
2022-09-24T04:39:02.749Z,51.09
2022-09-24T04:41:29.503Z,51.09
2022-09-24T04:43:57.416Z,51.10
2022-09-24T04:46:23.983Z,51.10
2022-09-24T04:48:50.448Z,51.11
2022-09-24T04:51:17.114Z,51.09
2022-09-24T04:53:43.572Z,51.10
2022-09-24T04:56:10.019Z,51.10
2022-09-24T04:58:38.449Z,51.09
2022-09-24T05:01:07.167Z,51.09
2022-09-24T05:03:33.785Z,51.09
2022-09-24T05:06:00.425Z,51.10
2022-09-24T05:08:26.875Z,51.09
2022-09-24T05:10:53.488Z,51.09
2022-09-24T05:13:25.197Z,51.08
2022-09-24T05:15:51.666Z,51.08
2022-09-24T05:18:18.107Z,51.08
2022-09-24T05:20:44.563Z,51.09
2022-09-24T05:23:12.221Z,51.09
2022-09-24T05:25:38.614Z,51.08
2022-09-24T05:28:08.024Z,51.10
2022-09-24T05:30:34.525Z,51.09
2022-09-24T05:33:01.066Z,51.09
2022-09-24T05:35:27.534Z,51.10
2022-09-24T05:37:54.124Z,51.10
2022-09-24T05:40:21.202Z,51.10
2022-09-24T05:42:47.723Z,51.11
2022-09-24T05:45:14.271Z,51.10
2022-09-24T05:47:40.754Z,51.09
2022-09-24T05:50:07.853Z,51.11
2022-09-24T05:52:34.319Z,51.12
2022-09-24T05:55:05.381Z,51.12
2022-09-24T05:57:33.864Z,51.10
2022-09-24T06:00:01.370Z,51.11
2022-09-24T06:02:27.897Z,51.11
2022-09-24T06:04:54.497Z,51.11
2022-09-24T06:07:21.237Z,51.12
2022-09-24T06:09:47.664Z,51.11
2022-09-24T06:12:14.299Z,51.10
2022-09-24T06:14:40.957Z,51.12
2022-09-24T06:17:08.848Z,51.10
2022-09-24T06:19:35.545Z,51.10
2022-09-24T06:22:02.121Z,51.11
2022-09-24T06:24:28.640Z,51.08
2022-09-24T06:26:55.175Z,51.08
2022-09-24T06:29:21.598Z,51.06
2022-09-24T06:31:48.086Z,51.07
2022-09-24T06:34:14.559Z,51.06
2022-09-24T06:36:40.967Z,51.05
2022-09-24T06:39:08.033Z,51.03
2022-09-24T06:41:34.515Z,51.03
2022-09-24T06:44:01.148Z,51.03
2022-09-24T06:46:27.607Z,51.02
2022-09-24T06:48:54.155Z,51.02
2022-09-24T06:51:21.012Z,51.00
2022-09-24T06:53:51.621Z,51.00
2022-09-24T06:56:18.027Z,51.00
2022-09-24T06:58:44.410Z,50.99
2022-09-24T07:01:10.976Z,50.99
2022-09-24T07:03:37.401Z,50.99
2022-09-24T07:06:05.797Z,50.99
2022-09-24T07:08:32.681Z,50.99
2022-09-24T07:10:59.200Z,50.99
2022-09-24T07:13:25.562Z,50.97
2022-09-24T07:15:52.202Z,50.98
2022-09-24T07:18:20.187Z,50.97
2022-09-24T07:20:54.170Z,50.97
2022-09-24T07:23:21.022Z,50.96
2022-09-24T07:25:48.074Z,50.98
2022-09-24T07:28:15.059Z,50.97
2022-09-24T07:30:41.749Z,50.96
2022-09-24T07:33:08.788Z,50.97
2022-09-24T07:35:38.392Z,50.96
2022-09-24T07:38:07.519Z,50.95
2022-09-24T07:40:34.568Z,50.96
2022-09-24T07:43:01.185Z,50.95
2022-09-24T07:45:28.819Z,50.96
2022-09-24T07:47:59.259Z,50.96
2022-09-24T07:50:26.424Z,50.98
2022-09-24T07:52:53.198Z,50.99
2022-09-24T07:55:19.668Z,50.98
2022-09-24T07:57:50.797Z,50.99
2022-09-24T08:00:18.729Z,51.00
2022-09-24T08:02:47.419Z,51.01
2022-09-24T08:05:15.975Z,51.01
2022-09-24T08:07:42.863Z,51.04
2022-09-24T08:10:09.575Z,51.07
2022-09-24T08:12:37.100Z,51.08
2022-09-24T08:15:03.781Z,51.11
2022-09-24T08:17:31.229Z,51.08
2022-09-24T08:19:59.052Z,50.99
2022-09-24T08:22:25.657Z,50.87
2022-09-24T08:24:53.937Z,50.76
2022-09-24T08:27:20.506Z,50.67
2022-09-24T08:29:47.029Z,50.65
2022-09-24T08:32:17.321Z,50.60
2022-09-24T08:34:47.195Z,50.59
2022-09-24T08:37:16.398Z,50.62
2022-09-24T08:39:42.934Z,50.69
2022-09-24T08:42:25.563Z,50.81
2022-09-24T08:44:56.515Z,50.92
2022-09-24T08:47:56.140Z,51.08
2022-09-24T08:50:44.369Z,51.39
2022-09-24T08:53:28.550Z,51.91
2022-09-24T08:55:59.460Z,53.94
2022-09-24T08:58:49.617Z,70.19
2022-09-24T09:01:24.183Z,100.00
2022-09-24T09:04:09.119Z,100.00
2022-09-24T09:06:52.269Z,100.00
2022-09-24T09:09:28.814Z,100.00
2022-09-24T09:12:02.877Z,100.00
2022-09-24T09:14:54.445Z,100.00
2022-09-24T09:17:31.882Z,100.00
2022-09-24T09:20:01.623Z,100.00
2022-09-24T09:22:38.224Z,100.00
2022-09-24T09:25:26.063Z,100.00
2022-09-24T09:28:01.092Z,100.00
2022-09-24T09:30:34.373Z,100.00
2022-09-24T09:33:27.287Z,100.00
2022-09-24T09:36:17.689Z,100.00
2022-09-24T09:39:08.998Z,100.00
2022-09-24T09:41:45.525Z,100.00
2022-09-24T09:44:15.875Z,100.00
2022-09-24T09:46:56.896Z,100.00
2022-09-24T09:49:26.989Z,100.00
2022-09-24T09:51:57.980Z,100.00
2022-09-24T09:54:36.461Z,100.00
2022-09-24T09:57:04.033Z,100.00
2022-09-24T09:59:31.175Z,100.00
2022-09-24T10:01:57.791Z,100.00
2022-09-24T10:04:39.208Z,100.00
2022-09-24T10:07:09.318Z,100.00
2022-09-24T10:09:36.919Z,100.00
2022-09-24T10:12:15.424Z,100.00
2022-09-24T10:14:44.791Z,100.00
2022-09-24T10:17:16.537Z,100.00
2022-09-24T10:19:44.189Z,100.00
2022-09-24T10:22:23.351Z,100.00
2022-09-24T10:24:51.399Z,100.00
2022-09-24T10:27:29.324Z,100.00
2022-09-24T10:29:56.541Z,100.00
2022-09-24T10:32:26.564Z,100.00
2022-09-24T10:34:57.817Z,100.00
2022-09-24T10:37:24.459Z,100.00
2022-09-24T10:40:20.305Z,100.00
2022-09-24T10:42:55.657Z,100.00
2022-09-24T10:45:27.912Z,100.00
2022-09-24T10:48:06.264Z,100.00
2022-09-24T10:50:45.483Z,100.00
2022-09-24T10:53:40.214Z,100.00
2022-09-24T10:56:45.244Z,100.00
2022-09-24T10:59:21.275Z,100.00
2022-09-24T11:01:47.700Z,100.00
2022-09-24T11:04:39.161Z,100.00
2022-09-24T11:07:14.566Z,100.00
2022-09-24T11:09:53.842Z,100.00
2022-09-24T11:12:27.698Z,100.00
2022-09-24T11:15:06.097Z,100.00
2022-09-24T11:17:45.125Z,100.00
2022-09-24T11:20:14.614Z,100.00
2022-09-24T11:22:59.494Z,100.00
2022-09-24T11:25:38.124Z,100.00
2022-09-24T11:28:04.600Z,100.00
2022-09-24T11:30:49.874Z,100.00
2022-09-24T11:33:23.130Z,100.00
2022-09-24T11:36:01.336Z,100.00
2022-09-24T11:38:45.068Z,100.00
2022-09-24T11:41:59.744Z,100.00
2022-09-24T11:44:57.132Z,100.00
2022-09-24T11:47:42.292Z,100.00
2022-09-24T11:50:33.379Z,100.00
2022-09-24T11:53:12.243Z,100.00
2022-09-24T11:55:59.078Z,100.00
2022-09-24T11:58:31.677Z,100.00
2022-09-24T12:01:15.531Z,100.00
2022-09-24T12:04:00.267Z,100.00
2022-09-24T12:06:38.264Z,100.00
2022-09-24T12:09:31.746Z,100.00
2022-09-24T12:12:11.497Z,100.00
2022-09-24T12:14:53.013Z,100.00
2022-09-24T12:17:44.152Z,100.00
2022-09-24T12:20:46.095Z,100.00
2022-09-24T12:23:15.960Z,100.00
2022-09-24T12:25:45.168Z,100.00
2022-09-24T12:28:17.195Z,100.00
2022-09-24T12:30:55.715Z,100.00
2022-09-24T12:33:40.874Z,100.00
2022-09-24T12:36:32.690Z,100.00
2022-09-24T12:39:09.376Z,100.00
2022-09-24T12:41:40.126Z,100.00
2022-09-24T12:44:12.454Z,100.00
2022-09-24T12:46:59.693Z,100.00
2022-09-24T12:49:26.206Z,100.00
2022-09-24T12:52:17.431Z,100.00
2022-09-24T12:54:45.826Z,100.00
2022-09-24T12:57:20.082Z,100.00
2022-09-24T12:59:58.156Z,100.00
2022-09-24T13:02:26.113Z,100.00
2022-09-24T13:05:01.930Z,100.00
2022-09-24T13:07:41.756Z,100.00
2022-09-24T13:10:12.569Z,100.00
2022-09-24T13:12:39.069Z,100.00
2022-09-24T13:15:28.206Z,100.00
2022-09-24T13:18:03.032Z,100.00
2022-09-24T13:20:30.551Z,100.00
2022-09-24T13:23:13.728Z,100.00
2022-09-24T13:25:40.582Z,100.00
2022-09-24T13:28:22.502Z,100.00
2022-09-24T13:30:59.627Z,100.00
2022-09-24T13:33:30.361Z,100.00
2022-09-24T13:36:11.735Z,100.00
2022-09-24T13:39:01.004Z,100.00
2022-09-24T13:41:45.996Z,100.00
2022-09-24T13:44:33.759Z,100.00
2022-09-24T13:47:11.614Z,100.00
2022-09-24T13:49:42.751Z,100.00
2022-09-24T13:52:18.204Z,100.00
2022-09-24T13:54:51.377Z,100.00
2022-09-24T13:57:24.488Z,100.00
2022-09-24T14:00:04.058Z,100.00
2022-09-24T14:02:37.322Z,100.00
2022-09-24T14:05:07.244Z,100.00
2022-09-24T14:07:36.447Z,100.00
2022-09-24T14:10:20.951Z,100.00
2022-09-24T14:12:47.330Z,100.00
2022-09-24T14:15:17.522Z,100.00
2022-09-24T14:17:55.905Z,100.00
2022-09-24T14:20:22.628Z,100.00
2022-09-24T14:22:49.545Z,100.00
2022-09-24T14:25:20.712Z,100.00
2022-09-24T14:27:51.504Z,100.00
2022-09-24T14:30:30.151Z,100.00
2022-09-24T14:32:58.859Z,100.00
2022-09-24T14:35:30.043Z,100.00
2022-09-24T14:38:04.913Z,100.00
2022-09-24T14:40:40.266Z,100.00
2022-09-24T14:43:16.243Z,100.00
2022-09-24T14:45:42.752Z,100.00
2022-09-24T14:48:32.974Z,100.00
2022-09-24T14:51:00.003Z,100.00
2022-09-24T14:53:44.473Z,100.00
2022-09-24T14:56:26.119Z,100.00
2022-09-24T14:58:52.638Z,100.00
2022-09-24T15:01:23.100Z,100.00
2022-09-24T15:03:53.208Z,100.00
2022-09-24T15:06:34.898Z,100.00
2022-09-24T15:09:26.124Z,100.00
2022-09-24T15:11:52.861Z,100.00
2022-09-24T15:14:20.381Z,100.00
2022-09-24T15:16:47.304Z,100.00
2022-09-24T15:19:20.918Z,100.00
2022-09-24T15:22:00.284Z,100.00
2022-09-24T15:24:26.693Z,100.00
2022-09-24T15:27:02.452Z,100.00
2022-09-24T15:29:28.889Z,100.00
2022-09-24T15:31:57.313Z,100.00
2022-09-24T15:34:23.939Z,100.00
2022-09-24T15:36:55.504Z,100.00
2022-09-24T15:39:22.242Z,100.00
2022-09-24T15:41:48.745Z,100.00
2022-09-24T15:44:21.476Z,100.00
2022-09-24T15:46:48.057Z,100.00
2022-09-24T15:49:14.690Z,100.00
2022-09-24T15:51:41.042Z,100.00
2022-09-24T15:54:08.895Z,100.00
2022-09-24T15:56:35.287Z,100.00
2022-09-24T15:59:01.702Z,100.00
2022-09-24T16:01:28.259Z,100.00
2022-09-24T16:03:54.699Z,100.00
2022-09-24T16:06:21.032Z,100.00
2022-09-24T16:08:47.388Z,100.00
2022-09-24T16:11:13.762Z,100.00
2022-09-24T16:13:40.297Z,100.00
2022-09-24T16:16:07.501Z,100.00
2022-09-24T16:18:34.059Z,100.00
2022-09-24T16:21:04.306Z,100.00
2022-09-24T16:23:30.677Z,100.00
2022-09-24T16:25:59.044Z,100.00
2022-09-24T16:28:27.068Z,100.00
2022-09-24T16:30:54.045Z,100.00
2022-09-24T16:33:21.597Z,100.00
2022-09-24T16:35:48.370Z,100.00
2022-09-24T16:38:18.880Z,100.00
2022-09-24T16:40:48.402Z,100.00
2022-09-24T16:43:15.913Z,100.00
2022-09-24T16:45:42.300Z,100.00
2022-09-24T16:48:11.391Z,100.00
2022-09-24T16:50:37.761Z,100.00
2022-09-24T16:53:04.176Z,100.00
2022-09-24T16:55:30.674Z,100.00
2022-09-24T16:57:57.255Z,100.00
2022-09-24T17:00:23.639Z,100.00
2022-09-24T17:02:50.259Z,100.00
2022-09-24T17:05:17.147Z,100.00
2022-09-24T17:07:43.651Z,100.00
2022-09-24T17:10:11.305Z,100.00
2022-09-24T17:12:37.789Z,100.00
2022-09-24T17:15:04.636Z,100.00
